sensor_id;sensor_type;location;lat;lon;timestamp;pressure;altitude;pressure_sealevel;temperature;humidity
6899;BME280;3488;42.616;23.350;2023-02-10T00:02:06;61316.44;;;-6.66;83.08
6899;BME280;3488;42.616;23.350;2023-02-10T00:04:34;61325.88;;;-6.64;82.99
6899;BME280;3488;42.616;23.350;2023-02-10T00:07:01;61318.91;;;-6.66;82.76
6899;BME280;3488;42.616;23.350;2023-02-10T00:09:28;61327.41;;;-6.63;82.68
6899;BME280;3488;42.616;23.350;2023-02-10T00:11:56;61322.91;;;-6.65;82.63
6899;BME280;3488;42.616;23.350;2023-02-10T00:14:24;61330.03;;;-6.58;82.43
6899;BME280;3488;42.616;23.350;2023-02-10T00:16:51;61321.72;;;-6.71;82.51
6899;BME280;3488;42.616;23.350;2023-02-10T00:19:19;61323.19;;;-6.72;83.14
6899;BME280;3488;42.616;23.350;2023-02-10T00:21:48;61304.00;;;-6.86;83.29
6899;BME280;3488;42.616;23.350;2023-02-10T00:24:15;61315.63;;;-6.77;83.94
6899;BME280;3488;42.616;23.350;2023-02-10T00:26:42;61309.31;;;-6.73;83.67
6899;BME280;3488;42.616;23.350;2023-02-10T00:29:09;61307.13;;;-6.80;84.12
6899;BME280;3488;42.616;23.350;2023-02-10T00:31:36;61305.38;;;-6.89;84.74
6899;BME280;3488;42.616;23.350;2023-02-10T00:34:03;61299.91;;;-6.90;84.72
6899;BME280;3488;42.616;23.350;2023-02-10T00:36:30;61297.44;;;-6.90;84.69
6899;BME280;3488;42.616;23.350;2023-02-10T00:38:58;61292.88;;;-6.94;84.61
6899;BME280;3488;42.616;23.350;2023-02-10T00:41:26;61296.81;;;-6.95;83.94
6899;BME280;3488;42.616;23.350;2023-02-10T00:43:52;61290.25;;;-6.99;83.48
6899;BME280;3488;42.616;23.350;2023-02-10T00:46:20;61281.19;;;-7.06;83.72
6899;BME280;3488;42.616;23.350;2023-02-10T00:48:48;61279.66;;;-7.07;83.61
6899;BME280;3488;42.616;23.350;2023-02-10T00:51:16;61282.50;;;-7.12;83.44
6899;BME280;3488;42.616;23.350;2023-02-10T00:53:43;61277.03;;;-7.13;83.89
6899;BME280;3488;42.616;23.350;2023-02-10T00:56:11;61273.03;;;-7.14;83.89
6899;BME280;3488;42.616;23.350;2023-02-10T00:58:38;61275.00;;;-7.15;83.88
6899;BME280;3488;42.616;23.350;2023-02-10T01:01:05;61269.94;;;-7.20;83.93
6899;BME280;3488;42.616;23.350;2023-02-10T01:03:33;61268.84;;;-7.23;83.36
6899;BME280;3488;42.616;23.350;2023-02-10T01:06:00;61263.81;;;-7.26;83.08
6899;BME280;3488;42.616;23.350;2023-02-10T01:08:27;61258.72;;;-7.31;83.30
6899;BME280;3488;42.616;23.350;2023-02-10T01:10:59;61259.59;;;-7.35;83.49
6899;BME280;3488;42.616;23.350;2023-02-10T01:13:28;61252.56;;;-7.39;84.07
6899;BME280;3488;42.616;23.350;2023-02-10T01:15:56;61243.97;;;-7.45;84.73
6899;BME280;3488;42.616;23.350;2023-02-10T01:18:23;61243.91;;;-7.48;85.43
6899;BME280;3488;42.616;23.350;2023-02-10T01:20:50;61250.50;;;-7.41;86.32
6899;BME280;3488;42.616;23.350;2023-02-10T01:23:18;61252.63;;;-7.37;86.78
6899;BME280;3488;42.616;23.350;2023-02-10T01:25:45;61241.94;;;-7.47;87.07
6899;BME280;3488;42.616;23.350;2023-02-10T01:28:12;61247.09;;;-7.40;87.34
6899;BME280;3488;42.616;23.350;2023-02-10T01:30:41;61248.91;;;-7.45;87.47
6899;BME280;3488;42.616;23.350;2023-02-10T01:33:08;61238.59;;;-7.43;87.75
6899;BME280;3488;42.616;23.350;2023-02-10T01:35:37;61247.03;;;-7.42;87.87
6899;BME280;3488;42.616;23.350;2023-02-10T01:38:04;61252.03;;;-7.40;88.00
6899;BME280;3488;42.616;23.350;2023-02-10T01:40:31;61249.22;;;-7.35;87.91
6899;BME280;3488;42.616;23.350;2023-02-10T01:42:58;61247.63;;;-7.39;88.44
6899;BME280;3488;42.616;23.350;2023-02-10T01:45:27;61257.72;;;-7.32;88.67
6899;BME280;3488;42.616;23.350;2023-02-10T01:47:57;61262.81;;;-7.27;88.52
6899;BME280;3488;42.616;23.350;2023-02-10T01:50:26;61266.78;;;-7.25;88.37
6899;BME280;3488;42.616;23.350;2023-02-10T01:52:56;61231.84;;;-7.55;87.69
6899;BME280;3488;42.616;23.350;2023-02-10T01:55:26;61260.81;;;-7.26;87.73
6899;BME280;3488;42.616;23.350;2023-02-10T01:57:55;61260.75;;;-7.29;87.64
6899;BME280;3488;42.616;23.350;2023-02-10T02:00:23;61247.63;;;-7.39;87.73
6899;BME280;3488;42.616;23.350;2023-02-10T02:02:51;61251.59;;;-7.38;87.55
6899;BME280;3488;42.616;23.350;2023-02-10T02:05:31;61255.69;;;-7.34;88.25
6899;BME280;3488;42.616;23.350;2023-02-10T02:08:03;61243.47;;;-7.46;88.65
6899;BME280;3488;42.616;23.350;2023-02-10T02:10:42;61247.53;;;-7.42;88.78
6899;BME280;3488;42.616;23.350;2023-02-10T02:13:17;61251.59;;;-7.38;88.53
6899;BME280;3488;42.616;23.350;2023-02-10T02:15:53;61249.78;;;-7.32;88.04
6899;BME280;3488;42.616;23.350;2023-02-10T02:18:26;61252.13;;;-7.37;88.06
6899;BME280;3488;42.616;23.350;2023-02-10T02:21:30;61254.16;;;-7.35;87.90
6899;BME280;3488;42.616;23.350;2023-02-10T02:30:08;61258.06;;;-7.36;88.07
6899;BME280;3488;42.616;23.350;2023-02-10T02:32:48;61254.06;;;-7.38;87.84
6899;BME280;3488;42.616;23.350;2023-02-10T02:35:21;61248.47;;;-7.43;87.88
6899;BME280;3488;42.616;23.350;2023-02-10T02:37:52;61234.59;;;-7.45;88.27
6899;BME280;3488;42.616;23.350;2023-02-10T02:40:20;61239.53;;;-7.45;89.01
6899;BME280;3488;42.616;23.350;2023-02-10T02:42:47;61239.91;;;-7.49;89.83
6899;BME280;3488;42.616;23.350;2023-02-10T02:45:18;61245.94;;;-7.46;90.54
6899;BME280;3488;42.616;23.350;2023-02-10T02:47:58;61241.34;;;-7.50;91.11
6899;BME280;3488;42.616;23.350;2023-02-10T02:50:34;61239.03;;;-7.45;92.06
6899;BME280;3488;42.616;23.350;2023-02-10T02:53:09;61235.97;;;-7.48;92.51
6899;BME280;3488;42.616;23.350;2023-02-10T02:55:49;61240.94;;;-7.48;93.67
6899;BME280;3488;42.616;23.350;2023-02-10T02:58:21;61241.00;;;-7.46;94.23
6899;BME280;3488;42.616;23.350;2023-02-10T03:00:54;61229.94;;;-7.52;95.26
6899;BME280;3488;42.616;23.350;2023-02-10T03:03:27;61241.94;;;-7.47;96.44
6899;BME280;3488;42.616;23.350;2023-02-10T03:05:54;61235.84;;;-7.53;96.84
6899;BME280;3488;42.616;23.350;2023-02-10T03:08:21;61245.34;;;-7.49;97.27
6899;BME280;3488;42.616;23.350;2023-02-10T03:10:48;61230.97;;;-7.51;97.31
6899;BME280;3488;42.616;23.350;2023-02-10T03:13:15;61221.31;;;-7.60;97.64
6899;BME280;3488;42.616;23.350;2023-02-10T03:15:43;61225.69;;;-7.63;97.77
6899;BME280;3488;42.616;23.350;2023-02-10T03:18:10;61222.03;;;-7.69;97.54
6899;BME280;3488;42.616;23.350;2023-02-10T03:20:40;61222.13;;;-7.67;97.18
6899;BME280;3488;42.616;23.350;2023-02-10T03:23:07;61221.03;;;-7.70;96.84
6899;BME280;3488;42.616;23.350;2023-02-10T03:25:34;61219.06;;;-7.70;97.12
6899;BME280;3488;42.616;23.350;2023-02-10T03:28:01;61227.13;;;-7.64;97.01
6899;BME280;3488;42.616;23.350;2023-02-10T03:30:30;61215.50;;;-7.73;97.54
6899;BME280;3488;42.616;23.350;2023-02-10T03:32:58;61204.84;;;-7.84;97.38
6899;BME280;3488;42.616;23.350;2023-02-10T03:35:25;61198.22;;;-7.90;97.10
6899;BME280;3488;42.616;23.350;2023-02-10T03:37:53;61198.81;;;-7.87;97.29
6899;BME280;3488;42.616;23.350;2023-02-10T03:40:20;61201.28;;;-7.87;97.12
6899;BME280;3488;42.616;23.350;2023-02-10T03:42:47;61203.75;;;-7.87;97.47
6899;BME280;3488;42.616;23.350;2023-02-10T03:45:14;61197.72;;;-7.91;97.67
6899;BME280;3488;42.616;23.350;2023-02-10T03:47:42;61198.16;;;-7.93;97.89
6899;BME280;3488;42.616;23.350;2023-02-10T03:50:09;61195.69;;;-7.93;97.88
6899;BME280;3488;42.616;23.350;2023-02-10T03:52:36;61189.59;;;-7.99;97.98
6899;BME280;3488;42.616;23.350;2023-02-10T03:55:05;61184.13;;;-7.99;97.91
6899;BME280;3488;42.616;23.350;2023-02-10T03:57:32;61185.00;;;-8.03;98.13
6899;BME280;3488;42.616;23.350;2023-02-10T03:59:59;61185.97;;;-8.05;98.03
6899;BME280;3488;42.616;23.350;2023-02-10T04:02:26;61192.50;;;-8.01;97.24
6899;BME280;3488;42.616;23.350;2023-02-10T04:04:53;61180.50;;;-8.05;96.74
6899;BME280;3488;42.616;23.350;2023-02-10T04:07:21;61181.31;;;-8.12;96.58
6899;BME280;3488;42.616;23.350;2023-02-10T04:09:48;61179.50;;;-8.06;96.36
6899;BME280;3488;42.616;23.350;2023-02-10T04:12:16;61166.34;;;-8.17;95.88
6899;BME280;3488;42.616;23.350;2023-02-10T04:14:43;61166.28;;;-8.19;95.63
6899;BME280;3488;42.616;23.350;2023-02-10T04:17:10;61164.06;;;-8.29;95.91
6899;BME280;3488;42.616;23.350;2023-02-10T04:19:37;61152.09;;;-8.33;96.24
6899;BME280;3488;42.616;23.350;2023-02-10T04:22:04;61156.94;;;-8.36;96.07
6899;BME280;3488;42.616;23.350;2023-02-10T04:24:31;61154.09;;;-8.32;96.03
6899;BME280;3488;42.616;23.350;2023-02-10T04:26:58;61156.50;;;-8.34;95.86
6899;BME280;3488;42.616;23.350;2023-02-10T04:29:27;61149.03;;;-8.37;95.78
6899;BME280;3488;42.616;23.350;2023-02-10T04:31:54;61155.41;;;-8.38;95.83
6899;BME280;3488;42.616;23.350;2023-02-10T04:34:21;61154.38;;;-8.39;95.67
6899;BME280;3488;42.616;23.350;2023-02-10T04:36:48;61159.97;;;-8.33;95.69
6899;BME280;3488;42.616;23.350;2023-02-10T04:39:16;61153.09;;;-8.32;96.04
6899;BME280;3488;42.616;23.350;2023-02-10T04:41:43;61157.09;;;-8.31;95.73
6899;BME280;3488;42.616;23.350;2023-02-10T04:44:11;61163.03;;;-8.30;95.77
6899;BME280;3488;42.616;23.350;2023-02-10T04:46:39;61158.97;;;-8.34;95.69
6899;BME280;3488;42.616;23.350;2023-02-10T04:49:06;61154.03;;;-8.34;95.47
6899;BME280;3488;42.616;23.350;2023-02-10T04:51:34;61137.50;;;-8.43;95.33
6899;BME280;3488;42.616;23.350;2023-02-10T04:54:01;61139.81;;;-8.48;95.15
6899;BME280;3488;42.616;23.350;2023-02-10T04:56:28;61140.81;;;-8.47;95.14
6899;BME280;3488;42.616;23.350;2023-02-10T04:58:56;61138.28;;;-8.50;95.35
6899;BME280;3488;42.616;23.350;2023-02-10T05:01:23;61136.25;;;-8.52;95.35
6899;BME280;3488;42.616;23.350;2023-02-10T05:03:51;61130.66;;;-8.57;95.55
6899;BME280;3488;42.616;23.350;2023-02-10T05:06:18;61136.63;;;-8.56;95.36
6899;BME280;3488;42.616;23.350;2023-02-10T05:08:45;61131.09;;;-8.59;95.30
6899;BME280;3488;42.616;23.350;2023-02-10T05:11:15;61125.06;;;-8.63;95.19
6899;BME280;3488;42.616;23.350;2023-02-10T05:13:43;61114.63;;;-8.66;95.26
6899;BME280;3488;42.616;23.350;2023-02-10T05:16:11;61124.00;;;-8.66;95.12
6899;BME280;3488;42.616;23.350;2023-02-10T05:18:39;61123.50;;;-8.67;95.52
6899;BME280;3488;42.616;23.350;2023-02-10T05:21:08;61119.50;;;-8.68;96.01
6899;BME280;3488;42.616;23.350;2023-02-10T05:23:36;61121.53;;;-8.66;96.00
6899;BME280;3488;42.616;23.350;2023-02-10T05:26:05;61115.06;;;-8.68;96.28
6899;BME280;3488;42.616;23.350;2023-02-10T05:28:33;61119.50;;;-8.68;96.69
6899;BME280;3488;42.616;23.350;2023-02-10T05:31:00;61127.47;;;-8.65;97.28
6899;BME280;3488;42.616;23.350;2023-02-10T05:33:29;61121.97;;;-8.68;97.71
6899;BME280;3488;42.616;23.350;2023-02-10T05:35:56;61124.00;;;-8.66;98.40
6899;BME280;3488;42.616;23.350;2023-02-10T05:38:24;61129.16;;;-8.59;98.69
6899;BME280;3488;42.616;23.350;2023-02-10T05:40:52;61128.63;;;-8.59;98.68
6899;BME280;3488;42.616;23.350;2023-02-10T05:43:19;61129.66;;;-8.58;99.67
6899;BME280;3488;42.616;23.350;2023-02-10T05:45:47;61135.81;;;-8.50;99.60
6899;BME280;3488;42.616;23.350;2023-02-10T05:48:14;61138.88;;;-8.47;99.43
6899;BME280;3488;42.616;23.350;2023-02-10T05:50:41;61132.34;;;-8.51;99.30
6899;BME280;3488;42.616;23.350;2023-02-10T05:53:08;61147.50;;;-8.38;98.78
6899;BME280;3488;42.616;23.350;2023-02-10T05:55:37;61148.44;;;-8.40;98.61
6899;BME280;3488;42.616;23.350;2023-02-10T05:58:04;61141.63;;;-8.37;98.45
6899;BME280;3488;42.616;23.350;2023-02-10T06:00:31;61164.56;;;-8.28;98.16
6899;BME280;3488;42.616;23.350;2023-02-10T06:02:59;61156.28;;;-8.24;98.16
6899;BME280;3488;42.616;23.350;2023-02-10T06:05:26;61165.69;;;-8.22;99.11
6899;BME280;3488;42.616;23.350;2023-02-10T06:07:53;61170.91;;;-8.12;99.60
6899;BME280;3488;42.616;23.350;2023-02-10T06:10:21;61187.47;;;-8.03;100.00
6899;BME280;3488;42.616;23.350;2023-02-10T06:12:50;61187.56;;;-8.01;100.00
6899;BME280;3488;42.616;23.350;2023-02-10T06:15:17;61196.69;;;-7.92;100.00
6899;BME280;3488;42.616;23.350;2023-02-10T06:17:44;61203.47;;;-7.80;100.00
6899;BME280;3488;42.616;23.350;2023-02-10T06:20:11;61220.59;;;-7.68;100.00
6899;BME280;3488;42.616;23.350;2023-02-10T06:22:38;61222.13;;;-7.67;100.00
6899;BME280;3488;42.616;23.350;2023-02-10T06:25:05;61244.34;;;-7.50;100.00
6899;BME280;3488;42.616;23.350;2023-02-10T06:27:33;61253.06;;;-7.39;100.00
6899;BME280;3488;42.616;23.350;2023-02-10T06:30:02;61260.09;;;-7.34;100.00
6899;BME280;3488;42.616;23.350;2023-02-10T06:32:30;61254.31;;;-7.30;100.00
6899;BME280;3488;42.616;23.350;2023-02-10T06:34:57;61258.22;;;-7.31;100.00
6899;BME280;3488;42.616;23.350;2023-02-10T06:37:25;61260.25;;;-7.29;100.00
6899;BME280;3488;42.616;23.350;2023-02-10T06:39:52;61269.41;;;-7.20;100.00
6899;BME280;3488;42.616;23.350;2023-02-10T06:42:18;61269.41;;;-7.20;99.97
6899;BME280;3488;42.616;23.350;2023-02-10T06:44:46;61279.59;;;-7.10;99.52
6899;BME280;3488;42.616;23.350;2023-02-10T06:47:15;61275.94;;;-7.16;99.61
6899;BME280;3488;42.616;23.350;2023-02-10T06:49:42;61298.84;;;-6.93;99.41
6899;BME280;3488;42.616;23.350;2023-02-10T06:52:09;61314.59;;;-6.78;99.26
6899;BME280;3488;42.616;23.350;2023-02-10T06:54:36;61317.38;;;-6.68;99.22
6899;BME280;3488;42.616;23.350;2023-02-10T06:57:04;61320.50;;;-6.62;98.85
6899;BME280;3488;42.616;23.350;2023-02-10T06:59:32;61310.81;;;-6.72;98.64
6899;BME280;3488;42.616;23.350;2023-02-10T07:01:59;61316.72;;;-6.73;98.43
6899;BME280;3488;42.616;23.350;2023-02-10T07:04:29;61302.69;;;-6.80;98.49
6899;BME280;3488;42.616;23.350;2023-02-10T07:06:57;61330.84;;;-6.64;97.99
6899;BME280;3488;42.616;23.350;2023-02-10T07:09:24;61337.66;;;-6.50;97.40
6899;BME280;3488;42.616;23.350;2023-02-10T07:11:51;61352.41;;;-6.36;97.02
6899;BME280;3488;42.616;23.350;2023-02-10T07:14:18;61359.16;;;-6.24;95.90
6899;BME280;3488;42.616;23.350;2023-02-10T07:16:45;61367.25;;;-6.19;95.59
6899;BME280;3488;42.616;23.350;2023-02-10T07:19:13;61373.88;;;-6.12;94.81
6899;BME280;3488;42.616;23.350;2023-02-10T07:21:41;61373.94;;;-6.10;94.37
6899;BME280;3488;42.616;23.350;2023-02-10T07:24:09;61387.56;;;-6.01;93.90
6899;BME280;3488;42.616;23.350;2023-02-10T07:26:36;61387.63;;;-5.99;93.74
6899;BME280;3488;42.616;23.350;2023-02-10T07:29:03;61386.53;;;-6.02;92.67
6899;BME280;3488;42.616;23.350;2023-02-10T07:31:30;61376.34;;;-6.12;92.83
6899;BME280;3488;42.616;23.350;2023-02-10T07:34:00;61393.72;;;-5.93;93.36
6899;BME280;3488;42.616;23.350;2023-02-10T07:36:28;61395.13;;;-5.96;91.87
6899;BME280;3488;42.616;23.350;2023-02-10T07:38:57;61404.78;;;-5.86;91.06
6899;BME280;3488;42.616;23.350;2023-02-10T07:41:24;61414.97;;;-5.76;89.58
6899;BME280;3488;42.616;23.350;2023-02-10T07:43:52;61403.47;;;-5.80;88.67
6899;BME280;3488;42.616;23.350;2023-02-10T07:46:19;61415.97;;;-5.75;89.73
6899;BME280;3488;42.616;23.350;2023-02-10T07:48:46;61420.00;;;-5.74;90.20
6899;BME280;3488;42.616;23.350;2023-02-10T07:51:13;61429.81;;;-5.59;89.99
6899;BME280;3488;42.616;23.350;2023-02-10T07:53:40;61438.09;;;-5.46;88.69
6899;BME280;3488;42.616;23.350;2023-02-10T07:56:09;61465.78;;;-5.31;87.83
6899;BME280;3488;42.616;23.350;2023-02-10T07:58:36;61469.47;;;-5.23;85.38
6899;BME280;3488;42.616;23.350;2023-02-10T08:01:06;61478.66;;;-5.14;85.86
6899;BME280;3488;42.616;23.350;2023-02-10T08:03:33;61471.16;;;-5.16;86.39
6899;BME280;3488;42.616;23.350;2023-02-10T08:06:01;61482.81;;;-5.07;86.88
6899;BME280;3488;42.616;23.350;2023-02-10T08:08:28;61498.69;;;-4.89;85.52
6899;BME280;3488;42.616;23.350;2023-02-10T08:10:55;61483.00;;;-5.00;86.14
6899;BME280;3488;42.616;23.350;2023-02-10T08:13:24;61494.53;;;-4.96;86.28
6899;BME280;3488;42.616;23.350;2023-02-10T08:15:52;61485.34;;;-5.05;86.58
6899;BME280;3488;42.616;23.350;2023-02-10T08:18:19;61498.59;;;-4.92;86.89
6899;BME280;3488;42.616;23.350;2023-02-10T08:20:46;61508.94;;;-4.77;85.65
6899;BME280;3488;42.616;23.350;2023-02-10T08:23:15;61528.63;;;-4.64;85.69
6899;BME280;3488;42.616;23.350;2023-02-10T08:25:43;61532.91;;;-4.53;85.32
6899;BME280;3488;42.616;23.350;2023-02-10T08:28:11;61564.00;;;-4.22;84.98
6899;BME280;3488;42.616;23.350;2023-02-10T08:30:40;61590.34;;;-4.04;83.58
6899;BME280;3488;42.616;23.350;2023-02-10T08:33:07;61593.13;;;-3.94;81.72
6899;BME280;3488;42.616;23.350;2023-02-10T08:35:34;61593.56;;;-3.96;79.67
6899;BME280;3488;42.616;23.350;2023-02-10T08:38:02;61566.94;;;-4.24;78.82
6899;BME280;3488;42.616;23.350;2023-02-10T08:40:29;61569.06;;;-4.20;79.68
6899;BME280;3488;42.616;23.350;2023-02-10T08:42:57;61586.47;;;-4.00;79.56
6899;BME280;3488;42.616;23.350;2023-02-10T08:45:24;61608.81;;;-3.83;79.17
6899;BME280;3488;42.616;23.350;2023-02-10T08:47:52;61628.19;;;-3.64;77.45
6899;BME280;3488;42.616;23.350;2023-02-10T08:50:19;61617.84;;;-3.79;76.91
6899;BME280;3488;42.616;23.350;2023-02-10T08:52:47;61620.59;;;-3.69;76.38
6899;BME280;3488;42.616;23.350;2023-02-10T08:55:14;61637.38;;;-3.55;75.22
6899;BME280;3488;42.616;23.350;2023-02-10T08:57:41;61627.81;;;-3.60;75.60
6899;BME280;3488;42.616;23.350;2023-02-10T09:00:09;61656.78;;;-3.36;75.78
6899;BME280;3488;42.616;23.350;2023-02-10T09:02:37;61680.34;;;-3.10;74.26
6899;BME280;3488;42.616;23.350;2023-02-10T09:05:06;61698.16;;;-2.95;73.73
6899;BME280;3488;42.616;23.350;2023-02-10T09:07:33;61684.94;;;-3.06;72.20
6899;BME280;3488;42.616;23.350;2023-02-10T09:10:00;61691.63;;;-2.97;71.35
6899;BME280;3488;42.616;23.350;2023-02-10T09:12:27;61720.19;;;-2.71;72.40
6899;BME280;3488;42.616;23.350;2023-02-10T09:14:54;61737.88;;;-2.61;69.70
6899;BME280;3488;42.616;23.350;2023-02-10T09:17:22;61728.47;;;-2.58;70.00
6899;BME280;3488;42.616;23.350;2023-02-10T09:19:49;61756.34;;;-2.41;68.80
6899;BME280;3488;42.616;23.350;2023-02-10T09:22:17;61763.69;;;-2.26;67.67
6899;BME280;3488;42.616;23.350;2023-02-10T09:24:44;61742.59;;;-2.52;65.88
6899;BME280;3488;42.616;23.350;2023-02-10T09:27:14;61747.13;;;-2.50;67.25
6899;BME280;3488;42.616;23.350;2023-02-10T09:29:42;61771.78;;;-2.20;65.82
6899;BME280;3488;42.616;23.350;2023-02-10T09:32:10;61789.06;;;-2.08;65.57
6899;BME280;3488;42.616;23.350;2023-02-10T09:34:37;61791.19;;;-2.04;63.71
6899;BME280;3488;42.616;23.350;2023-02-10T09:37:06;61783.56;;;-2.09;64.68
6899;BME280;3488;42.616;23.350;2023-02-10T09:39:34;61813.16;;;-1.82;64.12
6899;BME280;3488;42.616;23.350;2023-02-10T09:42:09;61826.31;;;-1.74;63.72
6899;BME280;3488;42.616;23.350;2023-02-10T09:44:43;61832.66;;;-1.61;62.04
6899;BME280;3488;42.616;23.350;2023-02-10T09:47:26;61837.25;;;-1.56;63.14
6899;BME280;3488;42.616;23.350;2023-02-10T09:50:33;61856.13;;;-1.40;62.54
6899;BME280;3488;42.616;23.350;2023-02-10T09:53:11;61887.78;;;-1.11;62.79
6899;BME280;3488;42.616;23.350;2023-02-10T09:55:44;61920.63;;;-0.77;62.42
6899;BME280;3488;42.616;23.350;2023-02-10T09:58:18;61946.19;;;-0.52;59.65
6899;BME280;3488;42.616;23.350;2023-02-10T10:00:48;61921.69;;;-0.73;58.05
6899;BME280;3488;42.616;23.350;2023-02-10T10:03:21;61917.09;;;-0.78;59.53
6899;BME280;3488;42.616;23.350;2023-02-10T10:05:59;61894.63;;;-0.97;57.84
6899;BME280;3488;42.616;23.350;2023-02-10T10:08:38;61894.50;;;-1.02;58.44
6899;BME280;3488;42.616;23.350;2023-02-10T10:11:23;61893.47;;;-1.03;58.85
6899;BME280;3488;42.616;23.350;2023-02-10T10:13:51;61903.72;;;-0.93;57.20
6899;BME280;3488;42.616;23.350;2023-02-10T10:16:25;61915.03;;;-0.80;57.37
6899;BME280;3488;42.616;23.350;2023-02-10T10:19:06;61930.78;;;-0.69;56.42
6899;BME280;3488;42.616;23.350;2023-02-10T10:21:45;61929.38;;;-0.66;56.01
6899;BME280;3488;42.616;23.350;2023-02-10T10:24:33;61910.44;;;-0.84;55.54
6899;BME280;3488;42.616;23.350;2023-02-10T10:27:19;61936.56;;;-0.59;55.26
6899;BME280;3488;42.616;23.350;2023-02-10T10:29:52;61940.59;;;-0.57;54.74
6899;BME280;3488;42.616;23.350;2023-02-10T10:32:31;61932.00;;;-0.61;55.66
6899;BME280;3488;42.616;23.350;2023-02-10T10:35:01;61965.63;;;-0.35;55.74
6899;BME280;3488;42.616;23.350;2023-02-10T10:37:28;61999.38;;;-0.05;54.81
6899;BME280;3488;42.616;23.350;2023-02-10T10:39:59;61991.84;;;-0.05;53.37
6899;BME280;3488;42.616;23.350;2023-02-10T10:42:37;62001.00;;;0.02;53.64
6899;BME280;3488;42.616;23.350;2023-02-10T10:45:13;62001.59;;;0.05;53.60
6899;BME280;3488;42.616;23.350;2023-02-10T10:47:43;62031.81;;;0.35;53.63
6899;BME280;3488;42.616;23.350;2023-02-10T10:50:13;62043.00;;;0.41;51.96
6899;BME280;3488;42.616;23.350;2023-02-10T10:52:43;62038.38;;;0.36;52.22
6899;BME280;3488;42.616;23.350;2023-02-10T10:55:20;62051.25;;;0.51;52.02
6899;BME280;3488;42.616;23.350;2023-02-10T10:57:51;62080.88;;;0.75;52.45
6899;BME280;3488;42.616;23.350;2023-02-10T11:00:21;62095.84;;;0.95;51.54
6899;BME280;3488;42.616;23.350;2023-02-10T11:02:57;62095.91;;;0.97;50.71
6899;BME280;3488;42.616;23.350;2023-02-10T11:05:29;62103.53;;;1.02;50.68
6899;BME280;3488;42.616;23.350;2023-02-10T11:07:58;62099.94;;;0.99;49.79
6899;BME280;3488;42.616;23.350;2023-02-10T11:10:28;62096.88;;;0.96;50.28
6899;BME280;3488;42.616;23.350;2023-02-10T11:12:59;62116.25;;;1.10;51.13
6899;BME280;3488;42.616;23.350;2023-02-10T11:15:33;62112.81;;;1.14;49.59
6899;BME280;3488;42.616;23.350;2023-02-10T11:18:02;62115.34;;;1.14;49.71
6899;BME280;3488;42.616;23.350;2023-02-10T11:20:33;62092.78;;;0.92;49.46
6899;BME280;3488;42.616;23.350;2023-02-10T11:23:02;62059.91;;;0.57;50.47
6899;BME280;3488;42.616;23.350;2023-02-10T11:25:31;62051.78;;;0.52;50.57
6899;BME280;3488;42.616;23.350;2023-02-10T11:28:02;62082.06;;;0.84;50.87
6899;BME280;3488;42.616;23.350;2023-02-10T11:30:31;62114.84;;;1.13;48.92
6899;BME280;3488;42.616;23.350;2023-02-10T11:33:00;62120.94;;;1.17;48.56
6899;BME280;3488;42.616;23.350;2023-02-10T11:35:28;62117.34;;;1.13;48.09
6899;BME280;3488;42.616;23.350;2023-02-10T11:37:59;62103.09;;;1.04;48.05
6899;BME280;3488;42.616;23.350;2023-02-10T11:40:28;62128.69;;;1.27;47.94
6899;BME280;3488;42.616;23.350;2023-02-10T11:42:57;62150.69;;;1.46;47.72
6899;BME280;3488;42.616;23.350;2023-02-10T11:45:27;62182.50;;;1.77;47.17
6899;BME280;3488;42.616;23.350;2023-02-10T11:48:03;62200.00;;;1.97;46.75
6899;BME280;3488;42.616;23.350;2023-02-10T11:50:32;62188.19;;;1.85;46.93
6899;BME280;3488;42.616;23.350;2023-02-10T11:53:00;62189.81;;;1.89;47.00
6899;BME280;3488;42.616;23.350;2023-02-10T11:55:33;62189.69;;;1.84;46.25
6899;BME280;3488;42.616;23.350;2023-02-10T11:58:20;62176.91;;;1.74;46.82
6899;BME280;3488;42.616;23.350;2023-02-10T12:01:17;62170.34;;;1.73;47.01
6899;BME280;3488;42.616;23.350;2023-02-10T12:03:56;62183.63;;;1.83;47.43
6899;BME280;3488;42.616;23.350;2023-02-10T12:06:33;62166.59;;;1.62;47.84
6899;BME280;3488;42.616;23.350;2023-02-10T12:09:08;62163.56;;;1.61;47.64
6899;BME280;3488;42.616;23.350;2023-02-10T12:11:47;62183.00;;;1.78;48.04
6899;BME280;3488;42.616;23.350;2023-02-10T12:14:32;62204.56;;;1.99;47.24
6899;BME280;3488;42.616;23.350;2023-02-10T12:17:20;62229.16;;;2.20;47.68
6899;BME280;3488;42.616;23.350;2023-02-10T12:19:59;62255.91;;;2.49;46.93
6899;BME280;3488;42.616;23.350;2023-02-10T12:22:33;62261.56;;;2.55;47.04
6899;BME280;3488;42.616;23.350;2023-02-10T12:25:10;62219.50;;;2.16;46.59
6899;BME280;3488;42.616;23.350;2023-02-10T12:27:58;62215.88;;;2.10;46.85
6899;BME280;3488;42.616;23.350;2023-02-10T12:30:39;62242.13;;;2.38;46.36
6899;BME280;3488;42.616;23.350;2023-02-10T12:33:26;62267.28;;;2.63;45.87
6899;BME280;3488;42.616;23.350;2023-02-10T12:36:06;62239.53;;;2.35;46.63
6899;BME280;3488;42.616;23.350;2023-02-10T12:38:55;62226.78;;;2.25;46.65
6899;BME280;3488;42.616;23.350;2023-02-10T12:41:31;62195.47;;;1.95;45.62
6899;BME280;3488;42.616;23.350;2023-02-10T12:44:22;62193.34;;;1.90;46.29
6899;BME280;3488;42.616;23.350;2023-02-10T12:46:59;62200.59;;;2.00;47.13
6899;BME280;3488;42.616;23.350;2023-02-10T12:49:43;62212.28;;;2.06;46.53
6899;BME280;3488;42.616;23.350;2023-02-10T12:52:19;62214.56;;;2.18;47.16
6899;BME280;3488;42.616;23.350;2023-02-10T12:54:56;62221.34;;;2.08;47.57
6899;BME280;3488;42.616;23.350;2023-02-10T12:57:27;62246.63;;;2.38;46.52
6899;BME280;3488;42.616;23.350;2023-02-10T12:59:58;62270.31;;;2.63;46.43
6899;BME280;3488;42.616;23.350;2023-02-10T13:02:31;62285.25;;;2.80;45.51
6899;BME280;3488;42.616;23.350;2023-02-10T13:05:04;62299.66;;;2.94;44.83
6899;BME280;3488;42.616;23.350;2023-02-10T13:07:39;62322.78;;;3.17;45.34
6899;BME280;3488;42.616;23.350;2023-02-10T13:10:18;62346.34;;;3.37;45.67
6899;BME280;3488;42.616;23.350;2023-02-10T13:12:48;62353.59;;;3.47;44.80
6899;BME280;3488;42.616;23.350;2023-02-10T13:15:21;62357.19;;;3.50;44.48
6899;BME280;3488;42.616;23.350;2023-02-10T13:17:51;62356.69;;;3.50;44.45
6899;BME280;3488;42.616;23.350;2023-02-10T13:20:36;62354.19;;;3.50;43.28
6899;BME280;3488;42.616;23.350;2023-02-10T13:23:16;62344.88;;;3.38;42.65
6899;BME280;3488;42.616;23.350;2023-02-10T13:25:56;62345.22;;;3.31;43.08
6899;BME280;3488;42.616;23.350;2023-02-10T13:28:39;62332.59;;;3.29;43.01
6899;BME280;3488;42.616;23.350;2023-02-10T13:31:24;62342.31;;;3.36;43.53
6899;BME280;3488;42.616;23.350;2023-02-10T13:34:00;62356.59;;;3.45;43.02
6899;BME280;3488;42.616;23.350;2023-02-10T13:36:33;62323.22;;;3.15;43.48